Eddy, TX (76524)

9:36 AM CDT on August 21, 2014 (GMT -0500)
Pandemonium Farms | Change Station
CLOSE
Current Station
Personal Weather Station
Location: Moody, TX
Elevation: 837 ft
Nearby Weather Stations

Elev 837 ft 31.29 °N, 97.31 °W | Updated 54 seconds ago

Scattered Clouds
Scattered Clouds
83.8 °F
Feels Like 89 °F
N
0.0
Wind Variable Wind from SE

Today
High -- | Low -- °F
--% Chance of Precip.
Yesterday
High -- | Low -- °F
Precip. -- in
6:58 AM 8:05 PM
Waning Crescent, 14% visible
Pressure 30.05 in
Visibility 10.0 miles
Clouds Few 1900 ft
Scattered Clouds 2500 ft
Heat Index 89 °F
Dew Point 72 °F
Humidity 68%
Rainfall 0.00 in
Snow Depth Not available.
UV 2 out of 12
Pollen 8.00 out of 12
Ozone Good
PM2.5 Good
Flu Activity Not available.
METAR KPWG 211415Z AUTO 18018G22KT 10SM FEW019 SCT025 29/23 A3005 RMK AO1

More Conditions Fewer Conditions

Pressure 30.05 in
Visibility 10.0 miles
Clouds Few 1900 ft
Scattered Clouds 2500 ft
Heat Index 89 °F
Dew Point 72 °F
Humidity 68%
Rainfall 0.00 in
Snow Depth Not available.
UV 2 out of 12
Pollen 8.00 out of 12
Ozone Good
PM2.5 Good
Flu Activity Not available.
METAR KPWG 211415Z AUTO 18018G22KT 10SM FEW019 SCT025 29/23 A3005 RMK AO1

More Conditions Fewer Conditions

10-Day Weather Forecast

Almanac

Astronomy

Aug. 21, 2014 Rise Set
Actual Time 6:58 AM CDT 8:05 PM CDT
Civil Twilight 6:33 AM CDT 8:30 PM CDT
Nautical Twilight 6:03 AM CDT 9:00 PM CDT
Astronomical Twilight 5:32 AM CDT 9:31 PM CDT
Moon 3:36 AM CDT 5:29 PM CDT
Length of Visible Light 13h 57m
Length of Day
13h 07m
Tomorrow will be 1m 44s shorter.
Waning Crescent, 14% of the Moon is Illuminated
Today
Waning Crescent
Aug 25
New
Sep 2
First Quarter
Sep 8
Full
Sep 15
Last Quarter

Today's Extremes

State Highs State Lows

Community

WunderPhotos

Upload Photos

1,745,932 photos uploaded!

WunderBlogs® & News

By Dr. Jeff Masters
Director of Meteorology, Weather Underground
By Kari Strenfel
Meteorologist, Weather Underground
By Christopher C. Burt
Weather Historian, Weather Underground
August 21, 2014
August 21, 2014
August 21, 2014

Nearby

Air Quality

  Air Quality AQ Index Pollutant
Yesterday Moderate
PM2.5
Yesterday Good
OZONE
Current Good
PM2.5
Current Good
OZONE
Thursday Good
PM10
Thursday Good
OZONE
Friday Good
PM10
Friday Good
OZONE
Saturday Good
PM10
Saturday Good
OZONE
Sunday Good
PM10
Sunday Good
OZONE

Snow Depth

Station Depth Elevation
No new snow has been reported.

Earthquake Activity

City Distance Mag. Time & Date
No recent earthquake activity has been reported nearby.
Minimum magnitude displayed is 2.5.

Coastal Water Temperatures

Place Temperature
No Stations Reporting

Nearby Weather Stations